createdAt,value
2019-04-30T00:00:19.585Z,26.50
2019-04-30T00:02:38.349Z,24.40
2019-04-30T00:04:42.433Z,20.97
2019-04-30T00:06:50.125Z,36.70
2019-04-30T00:08:57.843Z,22.53
2019-04-30T00:11:05.453Z,28.27
2019-04-30T00:13:17.768Z,27.73
2019-04-30T00:15:22.577Z,55.17
2019-04-30T00:17:30.014Z,49.80
2019-04-30T00:19:37.666Z,49.73
2019-04-30T00:21:48.283Z,23.30
2019-04-30T00:23:56.150Z,18.87
2019-04-30T00:26:08.720Z,21.80
2019-04-30T00:28:15.149Z,23.17
2019-04-30T00:30:25.112Z,21.90
2019-04-30T00:32:32.501Z,23.03
2019-04-30T00:34:40.204Z,19.30
2019-04-30T00:36:47.993Z,23.77
2019-04-30T00:38:55.712Z,31.00
2019-04-30T00:41:06.787Z,25.47
2019-04-30T00:43:12.740Z,27.57
2019-04-30T00:45:20.336Z,29.10
2019-04-30T00:47:28.188Z,27.23
2019-04-30T00:49:36.026Z,24.60
2019-04-30T00:51:45.330Z,40.70
2019-04-30T00:53:53.256Z,22.63
2019-04-30T00:56:01.059Z,29.03
2019-04-30T00:58:08.828Z,29.43
2019-04-30T01:00:25.218Z,22.47
2019-04-30T01:02:45.581Z,25.10
2019-04-30T01:05:00.172Z,55.43
2019-04-30T01:07:08.489Z,30.33
2019-04-30T01:09:15.580Z,27.07
2019-04-30T01:11:25.020Z,27.30
2019-04-30T01:13:32.877Z,28.27
2019-04-30T01:15:43.974Z,42.83
2019-04-30T01:17:50.938Z,24.47
2019-04-30T01:19:59.268Z,23.70
2019-04-30T01:22:08.957Z,27.50
2019-04-30T01:24:16.709Z,22.53
2019-04-30T01:26:29.652Z,46.13
2019-04-30T01:28:34.317Z,27.67
2019-04-30T01:30:42.434Z,30.53
2019-04-30T01:32:56.480Z,31.10
2019-04-30T01:34:59.596Z,36.23
2019-04-30T01:37:08.738Z,42.00
2019-04-30T01:39:16.732Z,22.47
2019-04-30T01:41:27.309Z,34.50
2019-04-30T01:43:34.719Z,34.47
2019-04-30T01:45:42.489Z,26.27
2019-04-30T01:47:50.113Z,21.93
2019-04-30T01:50:00.980Z,45.80
2019-04-30T01:52:07.270Z,52.90
2019-04-30T01:54:20.815Z,63.70
2019-04-30T01:56:41.851Z,24.97
2019-04-30T01:58:59.393Z,30.87
2019-04-30T02:01:12.550Z,33.97
2019-04-30T02:03:20.164Z,26.03
2019-04-30T02:05:28.730Z,21.40
2019-04-30T02:07:36.567Z,20.77
2019-04-30T02:09:44.363Z,19.03
2019-04-30T02:11:52.149Z,19.73
2019-04-30T02:13:59.853Z,24.87
2019-04-30T02:16:08.651Z,18.83
2019-04-30T02:18:16.450Z,19.53
2019-04-30T02:20:24.071Z,22.77
2019-04-30T02:22:31.841Z,21.50
2019-04-30T02:24:39.556Z,21.80
2019-04-30T02:26:48.490Z,56.17
2019-04-30T02:28:56.450Z,17.53
2019-04-30T02:31:04.254Z,18.07
2019-04-30T02:33:12.080Z,18.47
2019-04-30T02:35:44.437Z,38.20
2019-04-30T02:38:15.312Z,46.80
2019-04-30T02:40:23.008Z,25.00
2019-04-30T02:42:31.861Z,21.00
2019-04-30T02:44:42.416Z,20.30
2019-04-30T02:46:52.299Z,17.30
2019-04-30T02:49:01.709Z,17.23
2019-04-30T02:51:13.365Z,16.07
2019-04-30T02:54:05.440Z,18.27
2019-04-30T02:56:13.060Z,16.83
2019-04-30T02:58:21.113Z,16.50
2019-04-30T03:00:32.547Z,17.20
2019-04-30T03:02:39.341Z,16.77
2019-04-30T03:04:50.121Z,16.33
2019-04-30T03:06:59.552Z,16.53
2019-04-30T03:09:09.978Z,17.40
2019-04-30T03:11:16.877Z,16.47
2019-04-30T03:13:24.799Z,19.30
2019-04-30T03:15:32.547Z,16.83
2019-04-30T03:17:52.244Z,17.57
2019-04-30T03:20:31.379Z,17.47
2019-04-30T03:22:30.093Z,19.97
2019-04-30T03:24:39.799Z,16.67
2019-04-30T03:26:49.687Z,16.87
2019-04-30T03:28:56.551Z,25.23
2019-04-30T03:31:04.980Z,19.77
2019-04-30T03:33:13.558Z,22.57
2019-04-30T03:35:22.788Z,17.70
2019-04-30T03:37:30.691Z,16.13
2019-04-30T03:39:39.934Z,20.67
2019-04-30T03:41:50.221Z,17.60
2019-04-30T03:44:13.842Z,18.50
2019-04-30T03:46:09.894Z,17.30
2019-04-30T03:48:15.688Z,17.27
2019-04-30T03:50:23.443Z,16.17
2019-04-30T03:52:31.123Z,19.30
2019-04-30T03:54:40.840Z,19.23
2019-04-30T03:56:50.239Z,18.00
2019-04-30T03:59:00.146Z,15.83
2019-04-30T04:01:29.383Z,41.90
2019-04-30T04:03:42.224Z,30.93
2019-04-30T04:06:09.389Z,17.87
2019-04-30T04:08:26.032Z,17.30
2019-04-30T04:10:55.447Z,16.87
2019-04-30T04:13:03.173Z,18.33
2019-04-30T04:15:11.066Z,15.30
2019-04-30T04:17:20.280Z,15.93
2019-04-30T04:19:29.215Z,15.47
2019-04-30T04:21:39.177Z,16.43
2019-04-30T04:23:49.171Z,15.60
2019-04-30T04:25:55.677Z,15.77
2019-04-30T04:28:03.335Z,16.40
2019-04-30T04:30:11.309Z,17.60
2019-04-30T04:32:23.512Z,16.23
2019-04-30T04:34:30.261Z,17.37
2019-04-30T04:36:39.969Z,16.73
2019-04-30T04:38:50.411Z,16.03
2019-04-30T04:41:02.671Z,16.10
2019-04-30T04:43:06.108Z,15.47
2019-04-30T04:45:14.035Z,16.67
2019-04-30T04:47:21.770Z,16.87
2019-04-30T04:49:30.537Z,15.33
2019-04-30T04:51:42.182Z,16.13
2019-04-30T04:53:50.022Z,14.67
2019-04-30T04:55:59.732Z,15.07
2019-04-30T04:58:06.773Z,15.10
2019-04-30T05:00:14.633Z,15.33
2019-04-30T05:02:49.568Z,16.27
2019-04-30T05:04:59.773Z,14.43
2019-04-30T05:07:06.417Z,13.47
2019-04-30T05:09:14.207Z,13.43
2019-04-30T05:11:21.937Z,14.13
2019-04-30T05:13:29.910Z,14.13
2019-04-30T05:15:39.014Z,12.43
2019-04-30T05:17:46.863Z,12.80
2019-04-30T05:19:54.425Z,14.53
2019-04-30T05:22:02.148Z,12.57
2019-04-30T05:24:09.882Z,12.63
2019-04-30T05:26:19.070Z,13.07
2019-04-30T05:28:26.735Z,12.40
2019-04-30T05:30:34.493Z,14.13
2019-04-30T05:32:42.173Z,12.63
2019-04-30T05:34:49.779Z,13.30
2019-04-30T05:36:58.486Z,13.20
2019-04-30T05:39:08.783Z,13.40
2019-04-30T05:41:16.611Z,13.30
2019-04-30T05:43:24.197Z,12.50
2019-04-30T05:45:33.731Z,12.80
2019-04-30T05:47:41.601Z,12.40
2019-04-30T05:49:49.284Z,12.23
2019-04-30T05:51:56.996Z,13.10
2019-04-30T05:54:04.664Z,13.10
2019-04-30T05:56:12.496Z,13.10
2019-04-30T05:58:20.235Z,13.37
2019-04-30T06:00:30.295Z,15.23
2019-04-30T06:02:39.724Z,14.33
2019-04-30T06:04:48.957Z,12.63
2019-04-30T06:06:56.463Z,14.00
2019-04-30T06:09:14.805Z,13.40
2019-04-30T06:11:36.607Z,16.50
2019-04-30T06:13:59.325Z,13.13
2019-04-30T06:16:13.027Z,14.17
2019-04-30T06:18:20.739Z,14.23
2019-04-30T06:20:28.874Z,14.00
2019-04-30T06:22:38.495Z,12.17
2019-04-30T06:24:46.032Z,14.37
2019-04-30T06:26:53.845Z,16.07
2019-04-30T06:29:02.108Z,13.37
2019-04-30T06:31:09.982Z,15.67
2019-04-30T06:33:19.285Z,13.90
2019-04-30T06:35:29.234Z,14.40
2019-04-30T06:37:38.728Z,14.43
2019-04-30T06:39:46.392Z,13.53
2019-04-30T06:42:04.280Z,12.77
2019-04-30T06:44:04.138Z,12.13
2019-04-30T06:46:11.885Z,13.20
2019-04-30T06:48:20.943Z,14.67
2019-04-30T06:50:29.301Z,15.17
2019-04-30T06:52:38.884Z,13.50
2019-04-30T06:54:46.882Z,13.30
2019-04-30T06:56:54.499Z,12.83
2019-04-30T06:59:02.225Z,13.33
2019-04-30T07:01:10.032Z,14.53
2019-04-30T07:03:19.139Z,13.03
2019-04-30T07:05:28.616Z,13.30
2019-04-30T07:07:41.198Z,12.93
2019-04-30T07:10:20.319Z,12.07
2019-04-30T07:12:48.974Z,12.53
2019-04-30T07:14:59.066Z,12.47
2019-04-30T07:17:06.456Z,12.00
2019-04-30T07:19:14.001Z,12.47
2019-04-30T07:21:21.837Z,12.03
2019-04-30T07:23:29.545Z,11.23
2019-04-30T07:25:39.112Z,11.57
2019-04-30T07:27:46.997Z,10.60
2019-04-30T07:29:54.646Z,11.40
2019-04-30T07:32:02.229Z,12.75
2019-04-30T07:34:09.882Z,10.37
2019-04-30T07:36:19.380Z,11.43
2019-04-30T07:38:29.390Z,10.75
2019-04-30T07:40:36.358Z,10.40
2019-04-30T07:42:45.152Z,10.98
2019-04-30T07:44:52.958Z,10.57
2019-04-30T07:47:02.056Z,10.53
2019-04-30T07:49:10.195Z,10.58
2019-04-30T07:51:21.178Z,9.67
2019-04-30T07:53:27.468Z,9.98
2019-04-30T07:55:35.118Z,9.80
2019-04-30T07:57:42.817Z,10.13
2019-04-30T07:59:50.523Z,9.90
2019-04-30T08:02:07.638Z,10.00
2019-04-30T08:04:13.811Z,10.17
2019-04-30T08:06:22.466Z,10.18
2019-04-30T08:08:30.590Z,10.27
2019-04-30T08:10:39.400Z,9.20
2019-04-30T08:12:49.908Z,9.95
2019-04-30T08:14:59.319Z,10.03
2019-04-30T08:17:08.752Z,10.95
2019-04-30T08:19:16.816Z,9.83
2019-04-30T08:21:24.682Z,9.45
2019-04-30T08:23:36.935Z,9.80
2019-04-30T08:25:42.257Z,9.80
2019-04-30T08:27:50.094Z,9.93
2019-04-30T08:29:59.219Z,10.05
2019-04-30T08:32:09.022Z,10.72
2019-04-30T08:34:16.786Z,10.45
2019-04-30T08:36:24.488Z,10.70
2019-04-30T08:38:32.144Z,10.63
2019-04-30T08:40:52.810Z,10.45
2019-04-30T08:42:49.695Z,11.12
2019-04-30T08:44:58.585Z,10.25
2019-04-30T08:47:06.218Z,10.18
2019-04-30T08:49:14.302Z,11.00
2019-04-30T08:51:22.302Z,10.53
2019-04-30T08:53:33.467Z,10.13
2019-04-30T08:55:39.457Z,10.50
2019-04-30T08:57:47.210Z,9.65
2019-04-30T08:59:54.951Z,9.68
2019-04-30T09:02:12.841Z,9.97
2019-04-30T09:04:11.994Z,10.40
2019-04-30T09:06:25.466Z,9.58
2019-04-30T09:08:33.455Z,10.25
2019-04-30T09:10:41.107Z,10.60
2019-04-30T09:12:49.499Z,10.00
2019-04-30T09:14:59.128Z,9.30
2019-04-30T09:17:09.170Z,10.27
2019-04-30T09:19:16.363Z,9.45
2019-04-30T09:21:23.971Z,9.15
2019-04-30T09:23:43.355Z,9.70
2019-04-30T09:25:40.789Z,9.98
2019-04-30T09:27:48.909Z,10.03
2019-04-30T09:29:58.764Z,10.15
2019-04-30T09:32:06.062Z,10.00
2019-04-30T09:34:17.747Z,8.95
2019-04-30T09:36:23.056Z,9.30
2019-04-30T09:38:30.718Z,9.68
2019-04-30T09:40:41.566Z,9.33
2019-04-30T09:42:48.756Z,10.10
2019-04-30T09:44:57.790Z,10.25
2019-04-30T09:47:05.838Z,9.50
2019-04-30T09:49:13.325Z,8.53
2019-04-30T09:51:24.095Z,9.10
2019-04-30T09:53:31.060Z,10.03
2019-04-30T09:55:40.538Z,9.00
2019-04-30T09:57:48.923Z,9.30
2019-04-30T09:59:56.753Z,8.70
2019-04-30T10:02:04.205Z,8.90
2019-04-30T10:04:12.401Z,10.75
2019-04-30T10:06:20.579Z,10.00
2019-04-30T10:08:30.728Z,9.38
2019-04-30T10:10:44.588Z,8.88
2019-04-30T10:12:52.163Z,8.00
2019-04-30T10:14:59.938Z,8.00
2019-04-30T10:17:13.965Z,8.65
2019-04-30T10:19:21.780Z,8.03
2019-04-30T10:21:29.389Z,8.00
2019-04-30T10:23:36.918Z,8.53
2019-04-30T10:25:44.824Z,8.85
2019-04-30T10:27:53.086Z,8.05
2019-04-30T10:30:01.414Z,8.73
2019-04-30T10:32:09.477Z,8.75
2019-04-30T10:34:18.228Z,8.48
2019-04-30T10:36:26.073Z,8.70
2019-04-30T10:38:33.985Z,8.80
2019-04-30T10:40:41.785Z,7.78
2019-04-30T10:42:49.363Z,8.58
2019-04-30T10:44:59.976Z,7.87
2019-04-30T10:47:06.233Z,8.83
2019-04-30T10:49:14.246Z,8.83
2019-04-30T10:51:21.838Z,7.97
2019-04-30T10:53:29.674Z,8.70
2019-04-30T10:55:38.763Z,7.65
2019-04-30T10:57:46.536Z,8.20
2019-04-30T10:59:54.103Z,8.83
2019-04-30T11:02:01.769Z,8.95
2019-04-30T11:04:10.377Z,7.90
2019-04-30T11:06:19.170Z,7.80
2019-04-30T11:08:26.781Z,8.03
2019-04-30T11:10:35.060Z,8.78
2019-04-30T11:12:42.660Z,8.15
2019-04-30T11:14:50.343Z,8.05
2019-04-30T11:16:59.925Z,8.30
2019-04-30T11:19:09.311Z,8.15
2019-04-30T11:21:17.667Z,8.55
2019-04-30T11:23:26.518Z,8.28
2019-04-30T11:25:34.977Z,8.75
2019-04-30T11:27:43.746Z,8.53
2019-04-30T11:29:51.804Z,8.88
2019-04-30T11:32:05.299Z,8.15
2019-04-30T11:34:13.215Z,8.00
2019-04-30T11:36:20.856Z,8.68
2019-04-30T11:38:29.943Z,9.35
2019-04-30T11:40:39.889Z,9.25
2019-04-30T11:42:47.392Z,8.85
2019-04-30T11:44:55.073Z,8.78
2019-04-30T11:47:33.483Z,9.08
2019-04-30T11:49:41.162Z,8.20
2019-04-30T11:51:48.841Z,8.10
2019-04-30T11:53:56.561Z,8.30
2019-04-30T11:56:05.187Z,9.95
2019-04-30T11:58:21.343Z,8.83
2019-04-30T12:00:29.660Z,9.60
2019-04-30T12:02:41.392Z,9.10
2019-04-30T12:04:49.523Z,8.18
2019-04-30T12:06:58.949Z,7.67
2019-04-30T12:09:28.510Z,8.05
2019-04-30T12:11:37.248Z,8.78
2019-04-30T12:13:44.849Z,8.43
2019-04-30T12:15:52.998Z,8.48
2019-04-30T12:18:00.569Z,7.92
2019-04-30T12:20:08.826Z,7.47
2019-04-30T12:22:16.339Z,7.58
2019-04-30T12:24:24.357Z,8.13
2019-04-30T12:26:32.156Z,7.62
2019-04-30T12:28:40.162Z,7.67
2019-04-30T12:30:48.939Z,8.33
2019-04-30T12:32:56.827Z,7.85
2019-04-30T12:35:04.975Z,7.78
2019-04-30T12:37:12.682Z,7.87
2019-04-30T12:39:20.535Z,7.25
2019-04-30T12:41:28.347Z,7.87
2019-04-30T12:43:36.372Z,8.55
2019-04-30T12:45:43.888Z,7.33
2019-04-30T12:47:55.803Z,6.67
2019-04-30T12:50:21.717Z,7.25
2019-04-30T12:52:34.414Z,6.83
2019-04-30T12:54:50.586Z,7.30
2019-04-30T12:57:11.242Z,7.10
2019-04-30T12:59:19.033Z,8.08
2019-04-30T13:01:31.681Z,7.20
2019-04-30T13:03:36.509Z,7.12
2019-04-30T13:05:44.374Z,6.80
2019-04-30T13:07:52.797Z,7.40
2019-04-30T13:10:02.160Z,7.55
2019-04-30T13:12:11.268Z,7.17
2019-04-30T13:14:20.219Z,7.42
2019-04-30T13:16:29.216Z,7.58
2019-04-30T13:18:36.925Z,7.58
2019-04-30T13:20:44.872Z,7.15
2019-04-30T13:22:52.728Z,7.35
2019-04-30T13:25:00.464Z,6.90
2019-04-30T13:27:09.462Z,6.58
2019-04-30T13:29:21.748Z,7.40
2019-04-30T13:31:29.532Z,7.70
2019-04-30T13:33:42.793Z,6.60
2019-04-30T13:35:50.857Z,6.90
2019-04-30T13:38:03.729Z,7.67
2019-04-30T13:40:36.717Z,7.62
2019-04-30T13:42:48.825Z,7.33
2019-04-30T13:44:56.457Z,7.35
2019-04-30T13:47:04.245Z,7.20
2019-04-30T13:49:11.952Z,7.25
2019-04-30T13:51:19.614Z,7.08
2019-04-30T13:53:28.436Z,7.20
2019-04-30T13:55:43.704Z,7.05
2019-04-30T13:57:45.262Z,7.65
2019-04-30T13:59:52.964Z,7.00
2019-04-30T14:02:00.848Z,8.55
2019-04-30T14:04:27.363Z,7.03
2019-04-30T14:06:38.833Z,7.85
2019-04-30T14:08:50.151Z,6.85
2019-04-30T14:10:59.215Z,7.20
2019-04-30T14:13:08.921Z,7.50
2019-04-30T14:15:19.093Z,7.17
2019-04-30T14:17:26.763Z,7.58
2019-04-30T14:19:34.381Z,7.60
2019-04-30T14:21:42.222Z,7.50
2019-04-30T14:23:49.800Z,7.40
2019-04-30T14:26:00.887Z,7.25
2019-04-30T14:28:08.937Z,6.65
2019-04-30T14:30:19.181Z,7.40
2019-04-30T14:32:28.541Z,7.67
2019-04-30T14:34:36.363Z,7.20
2019-04-30T14:36:44.054Z,6.70
2019-04-30T14:38:51.771Z,7.28
2019-04-30T14:41:00.687Z,6.78
2019-04-30T14:43:19.654Z,6.85
2019-04-30T14:45:31.616Z,7.15
2019-04-30T14:47:47.899Z,7.30
2019-04-30T14:50:14.811Z,8.08
2019-04-30T14:52:23.164Z,7.45
2019-04-30T14:54:50.929Z,7.42
2019-04-30T14:57:03.414Z,7.67
2019-04-30T14:59:39.236Z,7.67
2019-04-30T15:02:00.945Z,6.90
2019-04-30T15:04:08.599Z,7.22
2019-04-30T15:06:16.288Z,7.60
2019-04-30T15:08:24.101Z,7.45
2019-04-30T15:10:31.846Z,7.40
2019-04-30T15:12:39.538Z,6.80
2019-04-30T15:14:49.158Z,7.10
2019-04-30T15:16:56.715Z,7.80
2019-04-30T15:19:04.562Z,7.12
2019-04-30T15:21:12.326Z,7.62
2019-04-30T15:23:56.371Z,7.70
2019-04-30T15:25:58.638Z,7.78
2019-04-30T15:28:06.538Z,7.17
2019-04-30T15:30:21.733Z,7.70
2019-04-30T15:32:28.477Z,7.85
2019-04-30T15:34:35.960Z,7.65
2019-04-30T15:36:43.655Z,7.40
2019-04-30T15:39:02.647Z,7.97
2019-04-30T15:41:10.380Z,7.70
2019-04-30T15:43:18.292Z,7.47
2019-04-30T15:45:25.966Z,7.30
2019-04-30T15:47:34.340Z,7.10
2019-04-30T15:49:42.357Z,7.87
2019-04-30T15:51:50.485Z,7.55
2019-04-30T15:53:58.379Z,7.42
2019-04-30T15:56:06.165Z,7.42
2019-04-30T15:58:20.161Z,7.47
2019-04-30T16:00:31.285Z,6.95
2019-04-30T16:02:56.893Z,7.33
2019-04-30T16:05:11.325Z,7.55
2019-04-30T16:07:19.675Z,7.08
2019-04-30T16:09:33.214Z,7.53
2019-04-30T16:11:49.190Z,7.65
2019-04-30T16:14:13.759Z,7.03
2019-04-30T16:16:21.652Z,7.50
2019-04-30T16:18:35.703Z,7.53
2019-04-30T16:20:43.575Z,7.53
2019-04-30T16:22:51.238Z,8.10
2019-04-30T16:25:00.608Z,9.45
2019-04-30T16:27:09.238Z,9.10
2019-04-30T16:29:17.196Z,8.35
2019-04-30T16:31:25.079Z,9.38
2019-04-30T16:33:32.711Z,9.25
2019-04-30T16:35:40.378Z,8.73
2019-04-30T16:37:49.624Z,8.50
2019-04-30T16:39:57.416Z,8.55
2019-04-30T16:42:05.199Z,8.03
2019-04-30T16:44:12.875Z,9.30
2019-04-30T16:46:20.595Z,7.00
2019-04-30T16:48:28.999Z,7.17
2019-04-30T16:50:36.765Z,7.70
2019-04-30T16:52:44.320Z,7.62
2019-04-30T16:54:52.026Z,7.42
2019-04-30T16:57:04.167Z,7.00
2019-04-30T16:59:10.915Z,7.08
2019-04-30T17:01:18.587Z,7.08
2019-04-30T17:03:36.127Z,7.08
2019-04-30T17:05:52.285Z,7.15
2019-04-30T17:08:33.882Z,7.28
2019-04-30T17:10:56.658Z,6.72
2019-04-30T17:13:29.361Z,6.80
2019-04-30T17:15:37.781Z,7.25
2019-04-30T17:17:45.684Z,7.35
2019-04-30T17:19:53.105Z,6.60
2019-04-30T17:22:00.997Z,7.00
2019-04-30T17:24:08.875Z,7.55
2019-04-30T17:26:16.452Z,7.00
2019-04-30T17:28:24.073Z,6.72
2019-04-30T17:30:31.686Z,6.58
2019-04-30T17:32:39.562Z,6.90
2019-04-30T17:34:49.170Z,7.83
2019-04-30T17:36:56.407Z,7.47
2019-04-30T17:39:04.333Z,7.50
2019-04-30T17:41:12.217Z,6.72
2019-04-30T17:43:20.063Z,6.53
2019-04-30T17:45:29.196Z,6.95
2019-04-30T17:47:36.882Z,7.40
2019-04-30T17:49:44.812Z,6.97
2019-04-30T17:51:52.546Z,6.92
2019-04-30T17:54:14.218Z,7.40
2019-04-30T17:56:21.792Z,7.30
2019-04-30T17:58:29.522Z,7.47
2019-04-30T18:00:39.066Z,6.97
2019-04-30T18:02:46.997Z,7.30
2019-04-30T18:04:54.568Z,7.40
2019-04-30T18:07:02.747Z,8.18
2019-04-30T18:09:11.238Z,7.83
2019-04-30T18:11:20.063Z,8.03
2019-04-30T18:13:27.708Z,7.22
2019-04-30T18:15:35.687Z,8.68
2019-04-30T18:17:45.973Z,8.70
2019-04-30T18:20:10.951Z,9.80
2019-04-30T18:22:33.333Z,8.85
2019-04-30T18:24:56.035Z,8.08
2019-04-30T18:27:09.717Z,9.53
2019-04-30T18:29:17.600Z,8.98
2019-04-30T18:31:25.521Z,8.10
2019-04-30T18:33:33.230Z,8.70
2019-04-30T18:35:42.058Z,8.75
2019-04-30T18:37:49.872Z,9.40
2019-04-30T18:40:00.032Z,9.50
2019-04-30T18:42:10.765Z,9.80
2019-04-30T18:44:16.519Z,9.23
2019-04-30T18:46:24.369Z,9.88
2019-04-30T18:48:32.922Z,10.38
2019-04-30T18:50:41.000Z,10.95
2019-04-30T18:52:50.679Z,11.00
2019-04-30T18:54:59.482Z,11.15
2019-04-30T18:57:07.492Z,10.95
2019-04-30T18:59:15.375Z,11.15
2019-04-30T19:01:23.308Z,11.18
2019-04-30T19:03:30.875Z,10.93
2019-04-30T19:05:40.399Z,11.38
2019-04-30T19:07:59.080Z,12.70
2019-04-30T19:10:20.436Z,12.50
2019-04-30T19:12:43.657Z,13.95
2019-04-30T19:15:16.187Z,13.68
2019-04-30T19:17:46.880Z,12.82
2019-04-30T19:20:15.501Z,16.07
2019-04-30T19:22:23.599Z,21.90
2019-04-30T19:24:31.388Z,25.00
2019-04-30T19:26:39.376Z,31.65
2019-04-30T19:28:49.181Z,30.43
2019-04-30T19:30:58.795Z,31.65
2019-04-30T19:33:06.148Z,31.10
2019-04-30T19:35:13.931Z,32.58
2019-04-30T19:37:21.576Z,33.50
2019-04-30T19:39:32.366Z,33.43
2019-04-30T19:41:39.297Z,35.20
2019-04-30T19:43:47.217Z,36.60
2019-04-30T19:45:55.392Z,36.58
2019-04-30T19:48:02.871Z,33.50
2019-04-30T19:50:13.887Z,28.73
2019-04-30T19:52:20.606Z,33.60
2019-04-30T19:54:29.374Z,30.00
2019-04-30T19:56:38.833Z,28.27
2019-04-30T19:58:59.155Z,25.80
2019-04-30T20:00:56.090Z,24.40
2019-04-30T20:03:03.986Z,21.30
2019-04-30T20:05:11.883Z,22.83
2019-04-30T20:07:19.685Z,21.40
2019-04-30T20:09:29.143Z,23.07
2019-04-30T20:11:37.151Z,25.33
2019-04-30T20:13:45.167Z,25.47
2019-04-30T20:15:53.124Z,24.70
2019-04-30T20:18:01.200Z,26.50
2019-04-30T20:20:09.462Z,24.37
2019-04-30T20:22:19.421Z,28.50
2019-04-30T20:24:27.099Z,27.40
2019-04-30T20:26:34.887Z,26.53
2019-04-30T20:28:42.768Z,25.43
2019-04-30T20:30:50.923Z,25.43
2019-04-30T20:32:59.401Z,25.17
2019-04-30T20:35:09.759Z,24.07
2019-04-30T20:37:19.520Z,23.37
2019-04-30T20:39:35.901Z,23.33
2019-04-30T20:41:43.557Z,23.40
2019-04-30T20:43:51.339Z,21.67
2019-04-30T20:46:00.751Z,21.47
2019-04-30T20:48:09.020Z,21.47
2019-04-30T20:50:16.923Z,21.17
2019-04-30T20:52:24.667Z,21.37
2019-04-30T20:54:32.446Z,21.23
2019-04-30T20:56:40.383Z,21.97
2019-04-30T20:58:55.622Z,20.80
2019-04-30T21:01:04.057Z,20.70
2019-04-30T21:03:09.550Z,21.17
2019-04-30T21:05:16.880Z,19.87
2019-04-30T21:07:24.714Z,19.40
2019-04-30T21:09:32.469Z,18.93
2019-04-30T21:11:40.613Z,18.37
2019-04-30T21:13:49.106Z,17.43
2019-04-30T21:15:56.987Z,17.23
2019-04-30T21:18:05.024Z,17.43
2019-04-30T21:20:13.209Z,17.50
2019-04-30T21:22:22.889Z,17.33
2019-04-30T21:24:30.405Z,18.63
2019-04-30T21:26:38.222Z,18.17
2019-04-30T21:28:46.109Z,18.53
2019-04-30T21:30:54.086Z,18.93
2019-04-30T21:33:18.965Z,19.23
2019-04-30T21:35:50.701Z,20.00
2019-04-30T21:37:59.030Z,19.93
2019-04-30T21:40:09.725Z,19.43
2019-04-30T21:42:17.639Z,20.13
2019-04-30T21:44:25.502Z,20.50
2019-04-30T21:46:33.070Z,19.60
2019-04-30T21:48:40.937Z,19.60
2019-04-30T21:50:49.726Z,19.70
2019-04-30T21:52:59.290Z,19.07
2019-04-30T21:55:09.318Z,18.03
2019-04-30T21:57:17.090Z,18.20
2019-04-30T21:59:25.027Z,18.97
2019-04-30T22:01:33.327Z,18.63
2019-04-30T22:03:41.526Z,20.37
2019-04-30T22:05:49.365Z,21.83
2019-04-30T22:07:59.157Z,18.03
2019-04-30T22:10:07.117Z,16.43
2019-04-30T22:12:14.789Z,23.67
2019-04-30T22:14:22.676Z,17.57
2019-04-30T22:16:30.442Z,16.87
2019-04-30T22:18:38.165Z,19.87
2019-04-30T22:20:45.844Z,20.13
2019-04-30T22:22:53.591Z,23.17
2019-04-30T22:25:01.258Z,21.47
2019-04-30T22:27:08.815Z,21.70
2019-04-30T22:29:16.403Z,34.23
2019-04-30T22:31:23.913Z,33.10
2019-04-30T22:33:31.513Z,58.13
2019-04-30T22:36:02.877Z,151.23
2019-04-30T22:38:12.164Z,85.90
2019-04-30T22:40:19.945Z,40.63
2019-04-30T22:42:34.787Z,67.40
2019-04-30T22:44:42.310Z,50.53
2019-04-30T22:46:50.058Z,51.93
2019-04-30T22:48:57.714Z,52.87
2019-04-30T22:51:05.394Z,48.10
2019-04-30T22:53:13.047Z,50.07
2019-04-30T22:55:20.600Z,56.07
2019-04-30T22:57:28.375Z,39.90
2019-04-30T22:59:35.912Z,22.67
2019-04-30T23:02:01.965Z,23.37
2019-04-30T23:04:13.410Z,51.43
2019-04-30T23:06:21.194Z,26.70
2019-04-30T23:08:29.086Z,30.43
2019-04-30T23:10:36.935Z,20.50
2019-04-30T23:12:44.618Z,35.17
2019-04-30T23:14:52.342Z,17.93
2019-04-30T23:17:00.247Z,18.30
2019-04-30T23:19:07.968Z,18.17
2019-04-30T23:21:15.599Z,17.77
2019-04-30T23:23:23.339Z,18.17
2019-04-30T23:25:30.999Z,18.33
2019-04-30T23:27:38.532Z,42.87
2019-04-30T23:29:46.213Z,35.60
2019-04-30T23:31:53.991Z,31.53
2019-04-30T23:34:01.561Z,19.00
2019-04-30T23:36:09.129Z,19.23
2019-04-30T23:38:16.934Z,20.73
2019-04-30T23:40:28.287Z,17.90
2019-04-30T23:42:36.163Z,16.80
2019-04-30T23:44:43.793Z,15.57
2019-04-30T23:46:51.517Z,18.63
2019-04-30T23:48:59.231Z,16.57
2019-04-30T23:51:06.857Z,16.93
2019-04-30T23:53:14.522Z,19.17
2019-04-30T23:55:22.162Z,27.73
2019-04-30T23:57:29.881Z,17.57
2019-04-30T23:59:37.602Z,16.63
